SWA2533 KLAX-KDEN
Flight info
| Callsign | SWA2533 |
|---|---|
| Flight time | N/A |
| Altitude | 35000 |
| Route | ORCKA5 LAS J146 DICEE BUMMP SSKII3 |
| Aircraft | B738/M-SDE2E3FGHIRWXY/LB1 |
Departure
| Time | 2026-04-22 03:23 |
|---|---|
| Airport | Los Angeles International Airport (KLAX) |
Arrival
| Time | N/A |
|---|---|
| Airport | Denver International Airport (KDEN) |
| Time | Latitude | Longitude | Altitude | Speed | Heading |
|---|---|---|---|---|---|
| 2026-04-22 03:14 | 33.94155 | -118.40087 | 123 ft | 0 kts | 173° |
| 2026-04-22 03:19 | 33.94103 | -118.40079 | 123 ft | 10 kts | 173° |
| 2026-04-22 03:19 | 33.94024 | -118.40067 | 124 ft | 13 kts | 173° |
| 2026-04-22 03:19 | 33.93916 | -118.40040 | 124 ft | 18 kts | 149° |
| 2026-04-22 03:19 | 33.93891 | -118.39891 | 127 ft | 21 kts | 86° |
| 2026-04-22 03:20 | 33.93908 | -118.39703 | 126 ft | 25 kts | 82° |
| 2026-04-22 03:20 | 33.93931 | -118.39485 | 127 ft | 28 kts | 83° |
| 2026-04-22 03:20 | 33.93955 | -118.39243 | 124 ft | 30 kts | 83° |
| 2026-04-22 03:20 | 33.93983 | -118.38990 | 123 ft | 31 kts | 82° |
| 2026-04-22 03:21 | 33.94009 | -118.38725 | 125 ft | 32 kts | 83° |
| 2026-04-22 03:21 | 33.94034 | -118.38483 | 125 ft | 26 kts | 82° |
| 2026-04-22 03:21 | 33.94054 | -118.38285 | 123 ft | 21 kts | 83° |
| 2026-04-22 03:21 | 33.94067 | -118.38162 | 126 ft | 9 kts | 83° |
| 2026-04-22 03:22 | 33.94075 | -118.38063 | 126 ft | 16 kts | 90° |
| 2026-04-22 03:22 | 33.94021 | -118.38003 | 124 ft | 9 kts | 176° |
| 2026-04-22 03:22 | 33.93978 | -118.38089 | 127 ft | 26 kts | 263° |
| 2026-04-22 03:22 | 33.93930 | -118.38563 | 127 ft | 87 kts | 263° |
| 2026-04-22 03:23 | 33.93835 | -118.39493 | 127 ft | 134 kts | 263° |
| 2026-04-22 03:23 | 33.93707 | -118.40681 | 351 ft | 146 kts | 262° |
| 2026-04-22 03:23 | 33.93568 | -118.41885 | 721 ft | 146 kts | 261° |
| 2026-04-22 03:23 | 33.93419 | -118.43135 | 940 ft | 157 kts | 264° |
| 2026-04-22 03:24 | 33.93305 | -118.44498 | 1301 ft | 177 kts | 265° |
| 2026-04-22 03:24 | 33.93159 | -118.46002 | 2005 ft | 182 kts | 260° |
| 2026-04-22 03:24 | 33.92708 | -118.47473 | 2611 ft | 194 kts | 248° |
| 2026-04-22 03:24 | 33.92129 | -118.49012 | 3201 ft | 209 kts | 247° |
| 2026-04-22 03:25 | 33.91473 | -118.50651 | 3773 ft | 226 kts | 235° |
| 2026-04-22 03:25 | 33.90184 | -118.51852 | 4365 ft | 248 kts | 203° |
| 2026-04-22 03:25 | 33.88435 | -118.52086 | 5124 ft | 264 kts | 172° |
| 2026-04-22 03:25 | 33.86770 | -118.51076 | 5984 ft | 277 kts | 136° |
| 2026-04-22 03:26 | 33.85835 | -118.49066 | 6835 ft | 286 kts | 102° |
| 2026-04-22 03:26 | 33.85968 | -118.46672 | 7626 ft | 294 kts | 68° |
| 2026-04-22 03:26 | 33.87165 | -118.44707 | 8380 ft | 297 kts | 33° |
| 2026-04-22 03:26 | 33.89051 | -118.43805 | 9129 ft | 293 kts | 0° |
| 2026-04-22 03:27 | 33.91099 | -118.43746 | 9839 ft | 301 kts | 1° |
| 2026-04-22 03:27 | 33.93177 | -118.42883 | 10130 ft | 338 kts | 31° |
| 2026-04-22 03:27 | 33.94965 | -118.40822 | 10147 ft | 375 kts | 50° |
| 2026-04-22 03:27 | 33.96494 | -118.38117 | 10150 ft | 409 kts | 58° |
| 2026-04-22 03:28 | 33.97988 | -118.35043 | 10289 ft | 435 kts | 59° |
| 2026-04-22 03:28 | 33.99626 | -118.31895 | 10783 ft | 445 kts | 54° |
| 2026-04-22 03:28 | 34.00836 | -118.29872 | 11708 ft | 438 kts | 52° |
| 2026-04-22 03:29 | 34.04812 | -118.23005 | 14518 ft | 422 kts | 55° |
| 2026-04-22 03:29 | 34.06424 | -118.20070 | 15502 ft | 418 kts | 54° |
| 2026-04-22 03:29 | 34.07664 | -118.17886 | 16148 ft | 418 kts | 53° |
| 2026-04-22 03:29 | 34.09308 | -118.15034 | 16924 ft | 420 kts | 53° |
| 2026-04-22 03:30 | 34.10965 | -118.12117 | 17673 ft | 423 kts | 53° |
| 2026-04-22 03:30 | 34.12621 | -118.09158 | 18391 ft | 427 kts | 53° |
| 2026-04-22 03:30 | 34.14292 | -118.06181 | 18997 ft | 430 kts | 53° |
| 2026-04-22 03:30 | 34.15986 | -118.03186 | 19599 ft | 434 kts | 53° |
| 2026-04-22 03:31 | 34.17698 | -118.00155 | 20218 ft | 438 kts | 53° |
| 2026-04-22 03:31 | 34.19414 | -117.97099 | 20822 ft | 442 kts | 53° |
| 2026-04-22 03:31 | 34.21148 | -117.94009 | 21394 ft | 445 kts | 53° |
| 2026-04-22 03:31 | 34.22895 | -117.90899 | 21980 ft | 449 kts | 53° |
| 2026-04-22 03:32 | 34.24631 | -117.87808 | 22520 ft | 453 kts | 53° |
| 2026-04-22 03:32 | 34.26430 | -117.84600 | 23092 ft | 457 kts | 53° |
| 2026-04-22 03:32 | 34.28192 | -117.81452 | 23645 ft | 460 kts | 53° |
| 2026-04-22 03:32 | 34.29997 | -117.78226 | 24121 ft | 464 kts | 53° |
| 2026-04-22 03:33 | 34.31811 | -117.74982 | 24575 ft | 467 kts | 53° |
| 2026-04-22 03:33 | 34.33638 | -117.71711 | 25015 ft | 471 kts | 53° |
| 2026-04-22 03:33 | 34.35523 | -117.68405 | 25095 ft | 484 kts | 50° |
| 2026-04-22 03:33 | 34.37547 | -117.65072 | 25103 ft | 500 kts | 51° |
| 2026-04-22 03:34 | 34.39606 | -117.61585 | 25092 ft | 516 kts | 52° |
| 2026-04-22 03:34 | 34.41723 | -117.57997 | 25083 ft | 531 kts | 51° |
| 2026-04-22 03:34 | 34.43918 | -117.54333 | 25105 ft | 546 kts | 51° |
| 2026-04-22 03:34 | 34.46184 | -117.50560 | 25113 ft | 561 kts | 51° |
| 2026-04-22 03:35 | 34.48488 | -117.46683 | 25106 ft | 574 kts | 52° |
| 2026-04-22 03:35 | 34.50822 | -117.42730 | 25125 ft | 577 kts | 52° |
| 2026-04-22 03:35 | 34.53131 | -117.38837 | 25163 ft | 576 kts | 52° |
| 2026-04-22 03:35 | 34.55466 | -117.34916 | 25876 ft | 570 kts | 52° |
| 2026-04-22 03:36 | 34.57781 | -117.31014 | 26578 ft | 567 kts | 52° |
| 2026-04-22 03:36 | 34.60075 | -117.27130 | 27272 ft | 565 kts | 52° |
| 2026-04-22 03:36 | 34.62367 | -117.23246 | 27931 ft | 563 kts | 52° |
| 2026-04-22 03:36 | 34.64646 | -117.19393 | 28582 ft | 561 kts | 52° |
| 2026-04-22 03:37 | 34.66918 | -117.15546 | 29115 ft | 560 kts | 52° |
| 2026-04-22 03:37 | 34.69158 | -117.11743 | 29739 ft | 559 kts | 52° |
| 2026-04-22 03:37 | 34.71414 | -117.07905 | 30309 ft | 558 kts | 52° |
| 2026-04-22 03:37 | 34.73674 | -117.04062 | 30810 ft | 558 kts | 53° |
| 2026-04-22 03:38 | 34.75930 | -117.00225 | 31309 ft | 557 kts | 53° |
| 2026-04-22 03:38 | 34.78185 | -116.96381 | 31765 ft | 557 kts | 53° |
| 2026-04-22 03:38 | 34.80439 | -116.92535 | 32180 ft | 559 kts | 53° |
| 2026-04-22 03:38 | 34.82690 | -116.88689 | 32795 ft | 556 kts | 53° |
| 2026-04-22 03:39 | 34.84927 | -116.84863 | 33339 ft | 553 kts | 53° |
| 2026-04-22 03:39 | 34.87154 | -116.81052 | 33881 ft | 552 kts | 53° |
| 2026-04-22 03:39 | 34.89381 | -116.77237 | 34338 ft | 550 kts | 53° |
| 2026-04-22 03:39 | 34.91581 | -116.73489 | 34743 ft | 549 kts | 51° |
| 2026-04-22 03:40 | 34.94079 | -116.69980 | 34998 ft | 550 kts | 45° |
| 2026-04-22 03:40 | 34.96711 | -116.66542 | 35002 ft | 557 kts | 44° |
| 2026-04-22 03:40 | 35.02019 | -116.59623 | 34986 ft | 557 kts | 41° |
| 2026-04-22 03:41 | 35.07470 | -116.52923 | 34786 ft | 566 kts | 54° |
| 2026-04-22 03:41 | 35.09415 | -116.48737 | 34420 ft | 567 kts | 65° |
| 2026-04-22 03:41 | 35.11050 | -116.44380 | 34224 ft | 564 kts | 65° |
| 2026-04-22 03:42 | 35.12700 | -116.40034 | 34404 ft | 561 kts | 65° |
| 2026-04-22 03:42 | 35.14763 | -116.35996 | 34478 ft | 561 kts | 47° |
| 2026-04-22 03:42 | 35.17417 | -116.32539 | 34728 ft | 555 kts | 40° |
| 2026-04-22 03:42 | 35.20188 | -116.29357 | 35026 ft | 552 kts | 42° |
| 2026-04-22 03:43 | 35.22979 | -116.26128 | 35288 ft | 547 kts | 41° |
| 2026-04-22 03:43 | 35.25601 | -116.22991 | 36861 ft | 507 kts | 44° |
| 2026-04-22 03:43 | 35.28092 | -116.19967 | 37298 ft | 508 kts | 41° |
| 2026-04-22 03:43 | 35.30635 | -116.16925 | 37326 ft | 514 kts | 41° |
| 2026-04-22 03:44 | 35.35859 | -116.10753 | 37379 ft | 528 kts | 41° |
| 2026-04-22 03:44 | 35.41155 | -116.04394 | 37458 ft | 542 kts | 41° |
| 2026-04-22 03:45 | 35.46631 | -115.97864 | 37529 ft | 556 kts | 41° |
| 2026-04-22 03:45 | 35.49427 | -115.94511 | 37336 ft | 562 kts | 42° |
| 2026-04-22 03:45 | 35.52205 | -115.91165 | 37325 ft | 558 kts | 42° |
| 2026-04-22 03:46 | 35.54986 | -115.87825 | 37010 ft | 560 kts | 42° |
| 2026-04-22 03:46 | 35.57779 | -115.84477 | 36700 ft | 561 kts | 42° |
| 2026-04-22 03:46 | 35.60575 | -115.81115 | 36407 ft | 562 kts | 43° |
| 2026-04-22 03:46 | 35.63352 | -115.77732 | 36116 ft | 563 kts | 46° |
| 2026-04-22 03:47 | 35.65981 | -115.74150 | 35834 ft | 564 kts | 47° |
| 2026-04-22 03:47 | 35.68562 | -115.70583 | 35553 ft | 565 kts | 47° |
| 2026-04-22 03:47 | 35.71215 | -115.66927 | 35267 ft | 565 kts | 47° |
| 2026-04-22 03:47 | 35.73816 | -115.63358 | 34984 ft | 566 kts | 47° |
| 2026-04-22 03:48 | 35.79062 | -115.56127 | 34968 ft | 567 kts | 47° |
| 2026-04-22 03:48 | 35.84312 | -115.48868 | 34945 ft | 563 kts | 47° |
| 2026-04-22 03:49 | 35.89513 | -115.41669 | 34954 ft | 562 kts | 47° |
| 2026-04-22 03:49 | 35.94705 | -115.34461 | 34924 ft | 562 kts | 47° |
| 2026-04-22 03:50 | 35.99930 | -115.27198 | 34938 ft | 567 kts | 47° |
| 2026-04-22 03:50 | 36.05127 | -115.19950 | 34913 ft | 567 kts | 48° |
| 2026-04-22 03:51 | 36.07500 | -115.16061 | 34924 ft | 567 kts | 59° |
| 2026-04-22 03:51 | 36.09287 | -115.11722 | 34912 ft | 566 kts | 70° |
| 2026-04-22 03:51 | 36.12098 | -115.02638 | 34910 ft | 565 kts | 71° |
| 2026-04-22 03:52 | 36.14899 | -114.93514 | 34840 ft | 567 kts | 71° |
| 2026-04-22 03:52 | 36.17707 | -114.84392 | 34832 ft | 566 kts | 71° |
| 2026-04-22 03:53 | 36.20479 | -114.75320 | 34808 ft | 566 kts | 71° |
| 2026-04-22 03:53 | 36.23275 | -114.66209 | 34787 ft | 566 kts | 71° |
| 2026-04-22 03:54 | 36.26054 | -114.57067 | 34771 ft | 566 kts | 71° |
| 2026-04-22 03:54 | 36.28834 | -114.47937 | 34776 ft | 565 kts | 72° |
| 2026-04-22 03:55 | 36.31596 | -114.38806 | 34772 ft | 565 kts | 72° |
| 2026-04-22 03:55 | 36.34338 | -114.29730 | 34759 ft | 565 kts | 72° |
| 2026-04-22 03:56 | 36.37089 | -114.20585 | 34771 ft | 565 kts | 72° |
| 2026-04-22 03:56 | 36.39835 | -114.11432 | 34781 ft | 565 kts | 72° |
| 2026-04-22 03:57 | 36.42576 | -114.02264 | 34782 ft | 566 kts | 73° |
| 2026-04-22 03:57 | 36.45311 | -113.93088 | 34788 ft | 566 kts | 73° |
| 2026-04-22 03:58 | 36.48036 | -113.83914 | 34803 ft | 566 kts | 73° |
| 2026-04-22 03:58 | 36.50753 | -113.74735 | 34745 ft | 566 kts | 73° |
| 2026-04-22 03:59 | 36.53451 | -113.65595 | 34806 ft | 563 kts | 73° |
| 2026-04-22 03:59 | 36.56143 | -113.56438 | 34810 ft | 562 kts | 73° |
| 2026-04-22 04:00 | 36.58805 | -113.47361 | 34825 ft | 563 kts | 73° |
| 2026-04-22 04:00 | 36.61477 | -113.38215 | 34828 ft | 562 kts | 73° |
| 2026-04-22 04:01 | 36.64148 | -113.29042 | 34847 ft | 562 kts | 73° |
| 2026-04-22 04:01 | 36.66784 | -113.19939 | 34881 ft | 561 kts | 73° |
| 2026-04-22 04:02 | 36.69429 | -113.10787 | 34914 ft | 561 kts | 73° |
| 2026-04-22 04:02 | 36.72071 | -113.01608 | 34944 ft | 562 kts | 73° |
| 2026-04-22 04:03 | 36.74709 | -112.92417 | 34954 ft | 563 kts | 74° |
| 2026-04-22 04:03 | 36.77337 | -112.83225 | 34948 ft | 562 kts | 74° |
| 2026-04-22 04:04 | 36.79519 | -112.75576 | 34934 ft | 560 kts | 74° |